sensor_id;sensor_type;location;lat;lon;timestamp;pressure;altitude;pressure_sealevel;temperature;humidity
55424;BME280;41294;42.666;23.350;2023-09-18T00:00:54;95393.03;;;17.85;100.00
55424;BME280;41294;42.666;23.350;2023-09-18T00:03:22;95392.75;;;17.83;100.00
55424;BME280;41294;42.666;23.350;2023-09-18T00:05:50;95393.69;;;17.80;100.00
55424;BME280;41294;42.666;23.350;2023-09-18T00:08:18;95380.38;;;17.80;100.00
55424;BME280;41294;42.666;23.350;2023-09-18T00:10:54;95392.44;;;17.75;100.00
55424;BME280;41294;42.666;23.350;2023-09-18T00:13:20;95385.72;;;17.80;100.00
55424;BME280;41294;42.666;23.350;2023-09-18T00:15:46;95391.63;;;17.95;100.00
55424;BME280;41294;42.666;23.350;2023-09-18T00:18:14;95380.47;;;17.91;100.00
55424;BME280;41294;42.666;23.350;2023-09-18T00:20:40;95387.94;;;17.87;100.00
55424;BME280;41294;42.666;23.350;2023-09-18T00:23:07;95378.25;;;17.84;100.00
55424;BME280;41294;42.666;23.350;2023-09-18T00:25:33;95381.81;;;17.75;100.00
55424;BME280;41294;42.666;23.350;2023-09-18T00:27:58;95388.53;;;17.71;100.00
55424;BME280;41294;42.666;23.350;2023-09-18T00:30:24;95392.41;;;17.70;100.00
55424;BME280;41294;42.666;23.350;2023-09-18T00:32:49;95385.41;;;17.72;100.00
55424;BME280;41294;42.666;23.350;2023-09-18T00:35:15;95384.25;;;17.79;100.00
55424;BME280;41294;42.666;23.350;2023-09-18T00:37:40;95395.66;;;17.79;100.00
55424;BME280;41294;42.666;23.350;2023-09-18T00:40:07;95390.53;;;17.76;100.00
55424;BME280;41294;42.666;23.350;2023-09-18T00:42:32;95392.94;;;17.74;100.00
55424;BME280;41294;42.666;23.350;2023-09-18T00:44:58;95400.00;;;17.77;100.00
55424;BME280;41294;42.666;23.350;2023-09-18T00:47:24;95392.50;;;17.81;100.00
55424;BME280;41294;42.666;23.350;2023-09-18T00:49:51;95391.31;;;17.82;100.00
55424;BME280;41294;42.666;23.350;2023-09-18T00:52:19;95394.94;;;17.84;100.00
55424;BME280;41294;42.666;23.350;2023-09-18T00:54:46;95402.47;;;17.86;100.00
55424;BME280;41294;42.666;23.350;2023-09-18T00:57:12;95404.94;;;17.89;100.00
55424;BME280;41294;42.666;23.350;2023-09-18T00:59:38;95402.47;;;17.86;100.00
55424;BME280;41294;42.666;23.350;2023-09-18T01:02:04;95403.41;;;17.83;100.00
55424;BME280;41294;42.666;23.350;2023-09-18T01:04:30;95402.22;;;17.84;100.00
55424;BME280;41294;42.666;23.350;2023-09-18T01:06:58;95402.72;;;17.88;100.00
55424;BME280;41294;42.666;23.350;2023-09-18T01:09:24;95407.53;;;17.84;100.00
55424;BME280;41294;42.666;23.350;2023-09-18T01:14:37;95407.22;;;18.02;100.00
55424;BME280;41294;42.666;23.350;2023-09-18T01:17:05;95401.13;;;18.01;100.00
55424;BME280;41294;42.666;23.350;2023-09-18T01:19:45;95406.84;;;17.89;100.00
55424;BME280;41294;42.666;23.350;2023-09-18T01:22:13;95401.25;;;17.87;100.00
55424;BME280;41294;42.666;23.350;2023-09-18T01:24:39;95406.59;;;17.87;100.00
55424;BME280;41294;42.666;23.350;2023-09-18T01:27:10;95402.97;;;17.90;100.00
55424;BME280;41294;42.666;23.350;2023-09-18T01:29:35;95402.97;;;17.90;100.00
55424;BME280;41294;42.666;23.350;2023-09-18T01:32:01;95398.69;;;17.98;100.00
55424;BME280;41294;42.666;23.350;2023-09-18T01:34:35;95408.13;;;17.99;100.00
55424;BME280;41294;42.666;23.350;2023-09-18T01:37:03;95405.81;;;18.12;100.00
55424;BME280;41294;42.666;23.350;2023-09-18T01:39:31;95405.31;;;18.08;100.00
55424;BME280;41294;42.666;23.350;2023-09-18T01:42:02;95408.50;;;18.12;100.00
55424;BME280;41294;42.666;23.350;2023-09-18T01:44:29;95411.84;;;18.07;100.00
55424;BME280;41294;42.666;23.350;2023-09-18T01:46:56;95407.25;;;18.07;100.00
55424;BME280;41294;42.666;23.350;2023-09-18T01:49:31;95403.13;;;18.06;100.00
55424;BME280;41294;42.666;23.350;2023-09-18T01:51:57;95405.53;;;18.04;100.00
55424;BME280;41294;42.666;23.350;2023-09-18T01:54:22;95397.56;;;18.10;100.00
55424;BME280;41294;42.666;23.350;2023-09-18T01:56:48;95398.00;;;18.03;100.00
55424;BME280;41294;42.666;23.350;2023-09-18T01:59:14;95405.22;;;17.97;100.00
55424;BME280;41294;42.666;23.350;2023-09-18T02:01:39;95413.22;;;17.97;100.00
55424;BME280;41294;42.666;23.350;2023-09-18T02:04:05;95415.06;;;17.85;100.00
55424;BME280;41294;42.666;23.350;2023-09-18T02:06:30;95417.66;;;17.80;100.00
55424;BME280;41294;42.666;23.350;2023-09-18T02:08:56;95416.75;;;17.83;100.00
55424;BME280;41294;42.666;23.350;2023-09-18T02:11:21;95413.16;;;17.91;100.00
55424;BME280;41294;42.666;23.350;2023-09-18T02:13:47;95412.00;;;17.98;100.00
55424;BME280;41294;42.666;23.350;2023-09-18T02:16:12;95419.06;;;18.01;100.00
55424;BME280;41294;42.666;23.350;2023-09-18T02:18:37;95415.69;;;18.06;100.00
55424;BME280;41294;42.666;23.350;2023-09-18T02:21:03;95412.59;;;18.13;100.00
55424;BME280;41294;42.666;23.350;2023-09-18T02:23:28;95412.84;;;18.14;100.00
55424;BME280;41294;42.666;23.350;2023-09-18T02:25:57;95412.00;;;18.23;100.00
55424;BME280;41294;42.666;23.350;2023-09-18T02:28:23;95407.25;;;18.13;100.00
55424;BME280;41294;42.666;23.350;2023-09-18T02:30:49;95415.53;;;18.14;100.00
55424;BME280;41294;42.666;23.350;2023-09-18T02:33:15;95415.97;;;18.08;100.00
55424;BME280;41294;42.666;23.350;2023-09-18T02:35:41;95413.59;;;17.84;100.00
55424;BME280;41294;42.666;23.350;2023-09-18T02:38:08;95416.63;;;17.72;100.00
55424;BME280;41294;42.666;23.350;2023-09-18T02:40:33;95419.66;;;17.59;100.00
55424;BME280;41294;42.666;23.350;2023-09-18T02:42:59;95412.56;;;17.51;100.00
55424;BME280;41294;42.666;23.350;2023-09-18T02:45:26;95408.03;;;17.57;100.00
55424;BME280;41294;42.666;23.350;2023-09-18T02:47:51;95403.38;;;17.52;100.00
55424;BME280;41294;42.666;23.350;2023-09-18T02:50:17;95407.44;;;17.47;100.00
55424;BME280;41294;42.666;23.350;2023-09-18T02:52:42;95409.53;;;17.38;100.00
55424;BME280;41294;42.666;23.350;2023-09-18T02:55:07;95413.41;;;17.37;100.00
55424;BME280;41294;42.666;23.350;2023-09-18T02:57:35;95405.34;;;17.32;100.00
55424;BME280;41294;42.666;23.350;2023-09-18T03:00:00;95414.66;;;17.41;100.00
55424;BME280;41294;42.666;23.350;2023-09-18T03:02:25;95413.25;;;17.26;100.00
55424;BME280;41294;42.666;23.350;2023-09-18T03:04:51;95417.69;;;17.29;100.00
55424;BME280;41294;42.666;23.350;2023-09-18T03:07:16;95419.84;;;17.31;100.00
55424;BME280;41294;42.666;23.350;2023-09-18T03:09:42;95412.16;;;17.33;100.00
55424;BME280;41294;42.666;23.350;2023-09-18T03:12:07;95421.31;;;17.32;100.00
55424;BME280;41294;42.666;23.350;2023-09-18T03:14:33;95415.19;;;17.45;100.00
55424;BME280;41294;42.666;23.350;2023-09-18T03:16:59;95412.69;;;17.36;100.00
55424;BME280;41294;42.666;23.350;2023-09-18T03:19:24;95418.41;;;17.30;100.00
55424;BME280;41294;42.666;23.350;2023-09-18T03:21:52;95413.41;;;17.37;100.00
55424;BME280;41294;42.666;23.350;2023-09-18T03:24:17;95420.78;;;17.28;100.00
55424;BME280;41294;42.666;23.350;2023-09-18T03:26:43;95418.13;;;17.28;100.00
55424;BME280;41294;42.666;23.350;2023-09-18T03:29:09;95402.22;;;17.33;100.00
55424;BME280;41294;42.666;23.350;2023-09-18T03:31:34;95405.56;;;17.28;100.00
55424;BME280;41294;42.666;23.350;2023-09-18T03:34:00;95404.16;;;17.13;100.00
55424;BME280;41294;42.666;23.350;2023-09-18T03:36:25;95399.44;;;17.02;100.00
55424;BME280;41294;42.666;23.350;2023-09-18T03:38:50;95399.19;;;17.00;100.00
55424;BME280;41294;42.666;23.350;2023-09-18T03:41:16;95405.63;;;16.94;100.00
55424;BME280;41294;42.666;23.350;2023-09-18T03:43:41;95401.97;;;16.91;100.00
55424;BME280;41294;42.666;23.350;2023-09-18T03:46:07;95405.91;;;16.96;100.00
55424;BME280;41294;42.666;23.350;2023-09-18T03:48:33;95397.13;;;16.90;100.00
55424;BME280;41294;42.666;23.350;2023-09-18T03:51:06;95393.88;;;16.80;100.00
55424;BME280;41294;42.666;23.350;2023-09-18T03:53:35;95394.06;;;16.77;100.00
55424;BME280;41294;42.666;23.350;2023-09-18T03:56:01;95394.28;;;16.73;100.00
55424;BME280;41294;42.666;23.350;2023-09-18T03:58:26;95392.75;;;16.87;100.00
55424;BME280;41294;42.666;23.350;2023-09-18T04:00:52;95393.22;;;16.85;100.00
55424;BME280;41294;42.666;23.350;2023-09-18T04:03:17;95395.59;;;16.83;100.00
55424;BME280;41294;42.666;23.350;2023-09-18T04:05:43;95394.81;;;16.97;100.00
55424;BME280;41294;42.666;23.350;2023-09-18T04:08:08;95396.44;;;16.95;100.00
55424;BME280;41294;42.666;23.350;2023-09-18T04:10:34;95394.13;;;17.02;100.00
55424;BME280;41294;42.666;23.350;2023-09-18T04:13:00;95396.66;;;16.91;100.00
55424;BME280;41294;42.666;23.350;2023-09-18T04:15:26;95392.16;;;16.97;100.00
55424;BME280;41294;42.666;23.350;2023-09-18T04:17:53;95399.31;;;16.91;100.00
55424;BME280;41294;42.666;23.350;2023-09-18T04:20:19;95393.28;;;16.91;100.00
55424;BME280;41294;42.666;23.350;2023-09-18T04:22:46;95391.47;;;17.02;100.00
55424;BME280;41294;42.666;23.350;2023-09-18T04:25:16;95410.09;;;17.02;100.00
55424;BME280;41294;42.666;23.350;2023-09-18T04:27:42;95409.97;;;16.91;100.00
55424;BME280;41294;42.666;23.350;2023-09-18T04:30:08;95413.38;;;16.92;100.00
55424;BME280;41294;42.666;23.350;2023-09-18T04:32:36;95410.72;;;17.17;100.00
55424;BME280;41294;42.666;23.350;2023-09-18T04:35:03;95414.13;;;17.37;100.00
55424;BME280;41294;42.666;23.350;2023-09-18T04:37:30;95407.06;;;17.60;100.00
55424;BME280;41294;42.666;23.350;2023-09-18T04:39:57;95410.06;;;17.42;100.00
55424;BME280;41294;42.666;23.350;2023-09-18T04:42:23;95414.97;;;17.74;100.00
55424;BME280;41294;42.666;23.350;2023-09-18T04:44:48;95412.72;;;17.67;100.00
55424;BME280;41294;42.666;23.350;2023-09-18T04:47:14;95420.50;;;17.71;100.00
55424;BME280;41294;42.666;23.350;2023-09-18T04:49:39;95422.66;;;17.98;100.00
55424;BME280;41294;42.666;23.350;2023-09-18T04:52:04;95412.66;;;17.87;100.00
55424;BME280;41294;42.666;23.350;2023-09-18T04:54:30;95415.97;;;18.08;100.00
55424;BME280;41294;42.666;23.350;2023-09-18T04:56:56;95413.72;;;18.31;100.00
55424;BME280;41294;42.666;23.350;2023-09-18T04:59:21;95412.03;;;18.70;99.67
55424;BME280;41294;42.666;23.350;2023-09-18T05:01:47;95412.34;;;18.89;98.08
55424;BME280;41294;42.666;23.350;2023-09-18T05:04:12;95411.47;;;19.08;97.76
55424;BME280;41294;42.666;23.350;2023-09-18T05:06:39;95403.78;;;19.32;95.50
55424;BME280;41294;42.666;23.350;2023-09-18T05:09:05;95409.19;;;19.65;94.32
55424;BME280;41294;42.666;23.350;2023-09-18T05:11:32;95413.81;;;20.57;88.67
55424;BME280;41294;42.666;23.350;2023-09-18T05:13:57;95415.13;;;21.02;86.45
55424;BME280;41294;42.666;23.350;2023-09-18T05:16:22;95409.59;;;20.89;86.21
55424;BME280;41294;42.666;23.350;2023-09-18T05:18:48;95416.75;;;20.37;87.80
55424;BME280;41294;42.666;23.350;2023-09-18T05:21:13;95417.00;;;20.28;88.43
55424;BME280;41294;42.666;23.350;2023-09-18T05:23:38;95423.88;;;21.08;85.87
55424;BME280;41294;42.666;23.350;2023-09-18T05:26:04;95417.84;;;20.96;86.30
55424;BME280;41294;42.666;23.350;2023-09-18T05:28:31;95428.16;;;21.78;81.24
55424;BME280;41294;42.666;23.350;2023-09-18T05:30:56;95426.13;;;21.90;81.32
55424;BME280;41294;42.666;23.350;2023-09-18T05:33:22;95427.25;;;21.65;80.53
55424;BME280;41294;42.666;23.350;2023-09-18T05:35:47;95423.13;;;22.28;78.50
55424;BME280;41294;42.666;23.350;2023-09-18T05:38:14;95420.41;;;21.18;82.61
55424;BME280;41294;42.666;23.350;2023-09-18T05:40:40;95432.22;;;20.88;84.18
55424;BME280;41294;42.666;23.350;2023-09-18T05:43:05;95423.84;;;21.19;83.65
55424;BME280;41294;42.666;23.350;2023-09-18T05:45:31;95427.88;;;21.82;81.22
55424;BME280;41294;42.666;23.350;2023-09-18T05:47:58;95426.22;;;22.67;77.29
55424;BME280;41294;42.666;23.350;2023-09-18T05:50:30;95433.16;;;21.58;79.34
55424;BME280;41294;42.666;23.350;2023-09-18T05:52:57;95438.75;;;21.95;79.76
55424;BME280;41294;42.666;23.350;2023-09-18T05:55:35;95442.41;;;21.52;80.58
55424;BME280;41294;42.666;23.350;2023-09-18T05:58:01;95449.63;;;21.22;82.50
55424;BME280;41294;42.666;23.350;2023-09-18T06:00:29;95438.00;;;20.97;84.01
55424;BME280;41294;42.666;23.350;2023-09-18T06:02:56;95440.94;;;21.96;80.79
55424;BME280;41294;42.666;23.350;2023-09-18T06:05:21;95433.59;;;22.32;78.94
55424;BME280;41294;42.666;23.350;2023-09-18T06:07:50;95430.84;;;21.78;80.31
55424;BME280;41294;42.666;23.350;2023-09-18T06:10:16;95430.47;;;22.28;77.45
55424;BME280;41294;42.666;23.350;2023-09-18T06:12:43;95429.06;;;21.41;81.53
55424;BME280;41294;42.666;23.350;2023-09-18T06:15:10;95426.38;;;21.86;80.90
55424;BME280;41294;42.666;23.350;2023-09-18T06:17:41;95435.69;;;22.92;75.21
55424;BME280;41294;42.666;23.350;2023-09-18T06:20:08;95439.50;;;23.02;74.42
55424;BME280;41294;42.666;23.350;2023-09-18T06:22:38;95434.97;;;23.15;73.34
55424;BME280;41294;42.666;23.350;2023-09-18T06:25:05;95436.13;;;22.96;74.80
55424;BME280;41294;42.666;23.350;2023-09-18T06:27:30;95432.84;;;22.60;75.39
55424;BME280;41294;42.666;23.350;2023-09-18T06:29:57;95429.69;;;23.46;72.66
55424;BME280;41294;42.666;23.350;2023-09-18T06:32:23;95434.41;;;23.77;70.90
55424;BME280;41294;42.666;23.350;2023-09-18T06:34:48;95438.34;;;24.08;68.95
55424;BME280;41294;42.666;23.350;2023-09-18T06:37:14;95440.91;;;22.84;73.47
55424;BME280;41294;42.666;23.350;2023-09-18T06:39:39;95436.38;;;22.50;75.53
55424;BME280;41294;42.666;23.350;2023-09-18T06:42:05;95434.09;;;22.59;75.33
55424;BME280;41294;42.666;23.350;2023-09-18T06:44:31;95432.44;;;23.23;73.89
55424;BME280;41294;42.666;23.350;2023-09-18T06:46:56;95443.50;;;22.42;75.49
55424;BME280;41294;42.666;23.350;2023-09-18T06:49:21;95433.38;;;21.95;77.91
55424;BME280;41294;42.666;23.350;2023-09-18T06:51:47;95425.22;;;22.40;75.96
55424;BME280;41294;42.666;23.350;2023-09-18T06:54:12;95440.50;;;22.99;73.83
55424;BME280;41294;42.666;23.350;2023-09-18T06:56:37;95429.38;;;21.77;78.72
55424;BME280;41294;42.666;23.350;2023-09-18T06:59:03;95436.50;;;22.04;77.69
55424;BME280;41294;42.666;23.350;2023-09-18T07:01:30;95435.69;;;21.34;79.86
55424;BME280;41294;42.666;23.350;2023-09-18T07:03:56;95433.59;;;21.11;82.26
55424;BME280;41294;42.666;23.350;2023-09-18T07:06:22;95425.72;;;22.10;78.20
55424;BME280;41294;42.666;23.350;2023-09-18T07:08:48;95434.56;;;23.48;73.32
55424;BME280;41294;42.666;23.350;2023-09-18T07:11:17;95429.91;;;24.99;67.38
55424;BME280;41294;42.666;23.350;2023-09-18T07:13:43;95433.88;;;24.86;66.13
55424;BME280;41294;42.666;23.350;2023-09-18T07:16:10;95435.81;;;24.59;65.36
55424;BME280;41294;42.666;23.350;2023-09-18T07:18:36;95438.03;;;23.01;72.61
55424;BME280;41294;42.666;23.350;2023-09-18T07:21:01;95436.13;;;22.96;72.42
55424;BME280;41294;42.666;23.350;2023-09-18T07:23:27;95429.28;;;22.52;74.97
55424;BME280;41294;42.666;23.350;2023-09-18T07:25:53;95427.78;;;23.41;71.58
55424;BME280;41294;42.666;23.350;2023-09-18T07:28:18;95435.09;;;24.97;67.18
55424;BME280;41294;42.666;23.350;2023-09-18T07:30:45;95432.81;;;24.89;66.34
55424;BME280;41294;42.666;23.350;2023-09-18T07:33:11;95439.31;;;22.76;72.20
55424;BME280;41294;42.666;23.350;2023-09-18T07:35:37;95438.94;;;22.02;76.01
55424;BME280;41294;42.666;23.350;2023-09-18T07:38:03;95440.03;;;22.95;73.44
55424;BME280;41294;42.666;23.350;2023-09-18T07:40:29;95440.50;;;21.87;76.06
55424;BME280;41294;42.666;23.350;2023-09-18T07:42:54;95438.41;;;22.09;76.28
55424;BME280;41294;42.666;23.350;2023-09-18T07:45:19;95435.69;;;21.80;78.66
55424;BME280;41294;42.666;23.350;2023-09-18T07:47:45;95432.22;;;22.20;75.66
55424;BME280;41294;42.666;23.350;2023-09-18T07:50:10;95436.28;;;23.09;72.68
55424;BME280;41294;42.666;23.350;2023-09-18T07:52:37;95435.81;;;23.05;72.48
55424;BME280;41294;42.666;23.350;2023-09-18T07:55:03;95430.91;;;22.85;73.43
55424;BME280;41294;42.666;23.350;2023-09-18T07:57:28;95433.13;;;23.05;72.98
55424;BME280;41294;42.666;23.350;2023-09-18T07:59:55;95425.00;;;23.10;71.87
55424;BME280;41294;42.666;23.350;2023-09-18T08:02:20;95434.25;;;22.91;71.81
55424;BME280;41294;42.666;23.350;2023-09-18T08:04:47;95426.13;;;23.20;70.53
55424;BME280;41294;42.666;23.350;2023-09-18T08:07:12;95422.28;;;23.34;70.33
55424;BME280;41294;42.666;23.350;2023-09-18T08:09:38;95419.44;;;23.82;68.47
55424;BME280;41294;42.666;23.350;2023-09-18T08:12:05;95424.28;;;24.46;66.71
55424;BME280;41294;42.666;23.350;2023-09-18T08:14:30;95419.13;;;26.05;60.91
55424;BME280;41294;42.666;23.350;2023-09-18T08:17:00;95415.84;;;26.40;60.16
55424;BME280;41294;42.666;23.350;2023-09-18T08:19:26;95418.16;;;26.91;57.89
55424;BME280;41294;42.666;23.350;2023-09-18T08:21:55;95412.81;;;26.71;58.53
55424;BME280;41294;42.666;23.350;2023-09-18T08:24:22;95414.91;;;27.13;56.65
55424;BME280;41294;42.666;23.350;2023-09-18T08:26:48;95414.91;;;26.85;57.29
55424;BME280;41294;42.666;23.350;2023-09-18T08:29:13;95410.84;;;24.97;62.59
55424;BME280;41294;42.666;23.350;2023-09-18T08:31:39;95411.06;;;24.74;62.98
55424;BME280;41294;42.666;23.350;2023-09-18T08:34:04;95412.00;;;24.89;63.56
55424;BME280;41294;42.666;23.350;2023-09-18T08:36:30;95404.13;;;26.93;58.14
55424;BME280;41294;42.666;23.350;2023-09-18T08:38:58;95409.91;;;27.25;55.19
55424;BME280;41294;42.666;23.350;2023-09-18T08:41:24;95403.69;;;27.09;56.65
55424;BME280;41294;42.666;23.350;2023-09-18T08:43:59;95398.78;;;26.45;56.68
55424;BME280;41294;42.666;23.350;2023-09-18T08:46:25;95392.00;;;25.90;58.64
55424;BME280;41294;42.666;23.350;2023-09-18T08:48:51;95398.88;;;25.78;58.69
55424;BME280;41294;42.666;23.350;2023-09-18T08:51:18;95391.25;;;25.89;59.48
55424;BME280;41294;42.666;23.350;2023-09-18T08:53:44;95382.25;;;27.11;56.28
55424;BME280;41294;42.666;23.350;2023-09-18T08:56:10;95384.41;;;26.50;56.91
55424;BME280;41294;42.666;23.350;2023-09-18T08:58:38;95373.09;;;27.14;55.93
55424;BME280;41294;42.666;23.350;2023-09-18T09:01:08;95378.72;;;27.81;53.35
55424;BME280;41294;42.666;23.350;2023-09-18T09:03:39;95385.00;;;27.19;54.28
55424;BME280;41294;42.666;23.350;2023-09-18T09:06:06;95381.31;;;26.73;55.84
55424;BME280;41294;42.666;23.350;2023-09-18T09:08:32;95372.53;;;27.73;52.35
55424;BME280;41294;42.666;23.350;2023-09-18T09:10:57;95379.09;;;28.15;51.66
55424;BME280;41294;42.666;23.350;2023-09-18T09:13:24;95376.84;;;27.11;53.04
55424;BME280;41294;42.666;23.350;2023-09-18T09:15:52;95385.94;;;25.97;56.14
55424;BME280;41294;42.666;23.350;2023-09-18T09:18:20;95371.66;;;26.58;55.39
55424;BME280;41294;42.666;23.350;2023-09-18T09:21:03;95374.28;;;26.70;54.52
55424;BME280;41294;42.666;23.350;2023-09-18T09:23:50;95373.72;;;25.29;58.42
55424;BME280;41294;42.666;23.350;2023-09-18T09:26:22;95376.22;;;25.61;58.13
55424;BME280;41294;42.666;23.350;2023-09-18T09:28:47;95369.00;;;24.71;61.17
55424;BME280;41294;42.666;23.350;2023-09-18T09:31:27;95361.84;;;24.99;60.01
55424;BME280;41294;42.666;23.350;2023-09-18T09:33:53;95364.47;;;25.91;56.93
55424;BME280;41294;42.666;23.350;2023-09-18T09:36:20;95365.88;;;27.17;53.79
55424;BME280;41294;42.666;23.350;2023-09-18T09:38:45;95363.16;;;25.85;55.94
55424;BME280;41294;42.666;23.350;2023-09-18T09:41:15;95370.56;;;24.53;60.72
55424;BME280;41294;42.666;23.350;2023-09-18T09:43:43;95364.03;;;24.49;61.18
55424;BME280;41294;42.666;23.350;2023-09-18T09:46:19;95374.38;;;24.84;59.83
55424;BME280;41294;42.666;23.350;2023-09-18T09:51:24;95352.94;;;26.60;53.27
55424;BME280;41294;42.666;23.350;2023-09-18T09:53:50;95345.84;;;26.01;54.36
55424;BME280;41294;42.666;23.350;2023-09-18T09:56:16;95346.81;;;25.70;54.91
55424;BME280;41294;42.666;23.350;2023-09-18T09:59:04;95358.31;;;25.17;56.53
55424;BME280;41294;42.666;23.350;2023-09-18T10:01:34;95350.94;;;25.04;56.63
55424;BME280;41294;42.666;23.350;2023-09-18T10:04:04;95344.03;;;24.70;56.88
55424;BME280;41294;42.666;23.350;2023-09-18T10:06:34;95344.72;;;25.09;56.13
55424;BME280;41294;42.666;23.350;2023-09-18T10:09:02;95348.84;;;24.20;59.73
55424;BME280;41294;42.666;23.350;2023-09-18T10:11:30;95336.03;;;24.26;59.95
55424;BME280;41294;42.666;23.350;2023-09-18T10:14:00;95336.25;;;24.80;59.56
55424;BME280;41294;42.666;23.350;2023-09-18T10:16:30;95343.25;;;25.08;56.85
55424;BME280;41294;42.666;23.350;2023-09-18T10:19:31;95345.31;;;25.28;56.56
55424;BME280;41294;42.666;23.350;2023-09-18T10:24:46;95327.25;;;24.90;57.58
55424;BME280;41294;42.666;23.350;2023-09-18T10:27:15;95333.56;;;24.92;57.12
55424;BME280;41294;42.666;23.350;2023-09-18T10:29:44;95327.56;;;25.33;56.79
55424;BME280;41294;42.666;23.350;2023-09-18T10:32:14;95312.47;;;25.71;54.96
55424;BME280;41294;42.666;23.350;2023-09-18T10:34:41;95325.22;;;25.70;53.32
55424;BME280;41294;42.666;23.350;2023-09-18T10:37:10;95303.63;;;24.83;56.69
55424;BME280;41294;42.666;23.350;2023-09-18T10:39:38;95299.97;;;25.60;54.75
55424;BME280;41294;42.666;23.350;2023-09-18T10:44:40;95299.38;;;25.75;53.55
55424;BME280;41294;42.666;23.350;2023-09-18T10:47:08;95297.34;;;25.88;53.30
55424;BME280;41294;42.666;23.350;2023-09-18T10:49:35;95283.59;;;25.79;53.26
55424;BME280;41294;42.666;23.350;2023-09-18T10:52:01;95283.50;;;26.40;52.21
55424;BME280;41294;42.666;23.350;2023-09-18T10:54:28;95287.53;;;26.26;52.30
55424;BME280;41294;42.666;23.350;2023-09-18T10:56:56;95297.13;;;26.34;52.42
55424;BME280;41294;42.666;23.350;2023-09-18T10:59:23;95288.06;;;25.96;50.84
55424;BME280;41294;42.666;23.350;2023-09-18T11:01:49;95276.50;;;26.44;50.97
55424;BME280;41294;42.666;23.350;2023-09-18T11:04:18;95276.75;;;26.96;49.87
55424;BME280;41294;42.666;23.350;2023-09-18T11:09:23;95275.16;;;26.58;50.44
55424;BME280;41294;42.666;23.350;2023-09-18T11:12:09;95276.75;;;26.26;50.55
55424;BME280;41294;42.666;23.350;2023-09-18T11:14:49;95266.19;;;26.70;50.53
55424;BME280;41294;42.666;23.350;2023-09-18T11:17:37;95262.25;;;27.29;49.35
55424;BME280;41294;42.666;23.350;2023-09-18T11:22:49;95269.31;;;25.91;51.57
55424;BME280;41294;42.666;23.350;2023-09-18T11:28:00;95253.34;;;26.28;50.34
55424;BME280;41294;42.666;23.350;2023-09-18T11:30:27;95267.59;;;26.01;50.34
55424;BME280;41294;42.666;23.350;2023-09-18T11:32:54;95262.34;;;25.75;51.62
55424;BME280;41294;42.666;23.350;2023-09-18T11:35:20;95243.66;;;26.05;50.79
55424;BME280;41294;42.666;23.350;2023-09-18T11:37:46;95241.59;;;25.90;50.56
55424;BME280;41294;42.666;23.350;2023-09-18T11:40:31;95248.56;;;24.92;54.13
55424;BME280;41294;42.666;23.350;2023-09-18T11:45:57;95241.88;;;25.05;53.45
55424;BME280;41294;42.666;23.350;2023-09-18T11:48:24;95229.50;;;25.64;52.27
55424;BME280;41294;42.666;23.350;2023-09-18T11:50:51;95226.22;;;26.06;51.15
55424;BME280;41294;42.666;23.350;2023-09-18T11:53:18;95231.31;;;26.17;50.56
55424;BME280;41294;42.666;23.350;2023-09-18T11:55:44;95222.28;;;26.42;50.04
55424;BME280;41294;42.666;23.350;2023-09-18T11:58:10;95227.66;;;25.79;51.24
55424;BME280;41294;42.666;23.350;2023-09-18T12:00:36;95225.78;;;26.22;49.97
55424;BME280;41294;42.666;23.350;2023-09-18T12:03:15;95213.50;;;26.14;50.62
55424;BME280;41294;42.666;23.350;2023-09-18T12:05:44;95218.84;;;25.79;51.58
55424;BME280;41294;42.666;23.350;2023-09-18T12:08:11;95217.34;;;26.26;50.67
55424;BME280;41294;42.666;23.350;2023-09-18T12:10:37;95224.88;;;25.92;51.30
55424;BME280;41294;42.666;23.350;2023-09-18T12:13:06;95215.38;;;25.98;51.10
55424;BME280;41294;42.666;23.350;2023-09-18T12:15:37;95213.91;;;26.68;49.61
55424;BME280;41294;42.666;23.350;2023-09-18T12:18:08;95220.66;;;26.39;52.18
55424;BME280;41294;42.666;23.350;2023-09-18T12:20:34;95212.59;;;25.83;52.00
55424;BME280;41294;42.666;23.350;2023-09-18T12:23:01;95232.50;;;26.01;52.00
55424;BME280;41294;42.666;23.350;2023-09-18T12:25:28;95204.53;;;25.91;52.75
55424;BME280;41294;42.666;23.350;2023-09-18T12:27:54;95219.81;;;25.68;53.39
55424;BME280;41294;42.666;23.350;2023-09-18T12:30:21;95206.88;;;25.67;54.44
55424;BME280;41294;42.666;23.350;2023-09-18T12:32:48;95209.13;;;25.76;53.77
55424;BME280;41294;42.666;23.350;2023-09-18T12:35:14;95209.41;;;25.72;53.88
55424;BME280;41294;42.666;23.350;2023-09-18T12:37:40;95198.59;;;25.44;54.72
55424;BME280;41294;42.666;23.350;2023-09-18T12:40:07;95199.78;;;26.04;52.91
55424;BME280;41294;42.666;23.350;2023-09-18T12:42:39;95204.88;;;25.87;52.78
55424;BME280;41294;42.666;23.350;2023-09-18T12:45:08;95210.06;;;25.17;55.22
55424;BME280;41294;42.666;23.350;2023-09-18T12:47:35;95205.88;;;24.95;55.70
55424;BME280;41294;42.666;23.350;2023-09-18T12:50:05;95205.09;;;24.88;56.69
55424;BME280;41294;42.666;23.350;2023-09-18T12:52:32;95195.13;;;25.36;54.76
55424;BME280;41294;42.666;23.350;2023-09-18T12:54:58;95191.38;;;25.19;54.64
55424;BME280;41294;42.666;23.350;2023-09-18T12:57:25;95202.03;;;25.24;55.59
55424;BME280;41294;42.666;23.350;2023-09-18T12:59:50;95193.84;;;25.58;54.84
55424;BME280;41294;42.666;23.350;2023-09-18T13:02:18;95199.34;;;25.73;54.45
55424;BME280;41294;42.666;23.350;2023-09-18T13:04:51;95194.72;;;25.32;54.84
55424;BME280;41294;42.666;23.350;2023-09-18T13:07:17;95192.66;;;25.46;55.26